createdAt,value
2023-03-26T00:00:54.305Z,0.70
2023-03-26T00:03:56.509Z,0.50
2023-03-26T00:06:58.759Z,0.43
2023-03-26T00:10:02.436Z,0.70
2023-03-26T00:13:05.319Z,0.57
2023-03-26T00:16:09.440Z,0.50
2023-03-26T00:19:12.001Z,0.65
2023-03-26T00:22:17.903Z,0.60
2023-03-26T00:25:19.735Z,0.40
2023-03-26T00:28:23.207Z,0.60
2023-03-26T00:31:26.917Z,0.80
2023-03-26T00:34:30.724Z,0.77
2023-03-26T00:37:32.810Z,0.70
2023-03-26T00:40:34.747Z,0.70
2023-03-26T00:43:36.696Z,0.70
2023-03-26T00:46:40.292Z,0.70
2023-03-26T00:49:43.262Z,0.60
2023-03-26T00:52:46.074Z,0.70
2023-03-26T00:55:48.892Z,0.65
2023-03-26T00:58:51.078Z,0.90
2023-03-26T01:01:54.816Z,0.70
2023-03-26T01:04:59.108Z,0.80
2023-03-26T01:08:01.697Z,0.63
2023-03-26T01:11:08.281Z,0.70
2023-03-26T01:14:13.785Z,0.70
2023-03-26T01:17:18.644Z,0.60
2023-03-26T01:20:23.758Z,0.65
2023-03-26T01:23:34.897Z,0.90
2023-03-26T01:27:02.899Z,0.65
2023-03-26T01:30:13.790Z,0.57
2023-03-26T01:33:24.171Z,0.82
2023-03-26T01:36:32.757Z,0.90
2023-03-26T01:39:42.697Z,0.73
2023-03-26T01:42:52.219Z,0.95
2023-03-26T01:45:55.932Z,0.70
2023-03-26T01:48:58.763Z,0.80
2023-03-26T01:52:00.527Z,0.88
2023-03-26T01:55:05.371Z,0.80
2023-03-26T01:58:22.988Z,0.93
2023-03-26T02:01:30.280Z,1.00
2023-03-26T02:04:39.137Z,0.80
2023-03-26T02:07:45.424Z,0.70
2023-03-26T02:10:51.623Z,0.90
2023-03-26T02:13:55.484Z,0.90
2023-03-26T02:16:58.093Z,0.80
2023-03-26T02:20:02.863Z,0.95
2023-03-26T02:23:04.752Z,0.95
2023-03-26T02:26:10.127Z,0.95
2023-03-26T02:29:14.623Z,0.90
2023-03-26T02:32:16.380Z,1.15
2023-03-26T02:35:18.385Z,1.35
2023-03-26T02:38:20.285Z,1.20
2023-03-26T02:41:22.459Z,1.00
2023-03-26T02:44:26.074Z,0.95
2023-03-26T02:47:30.221Z,0.88
2023-03-26T02:50:32.651Z,0.95
2023-03-26T02:53:35.728Z,1.15
2023-03-26T02:56:37.893Z,0.90
2023-03-26T02:59:41.979Z,0.98
2023-03-26T03:02:44.100Z,1.00
2023-03-26T03:05:47.394Z,1.10
2023-03-26T03:08:49.726Z,1.35
2023-03-26T03:11:53.399Z,1.25
2023-03-26T03:14:56.814Z,1.27
2023-03-26T03:17:58.921Z,1.08
2023-03-26T03:21:00.957Z,1.33
2023-03-26T03:24:02.851Z,1.02
2023-03-26T03:27:06.962Z,1.30
2023-03-26T03:30:12.964Z,0.90
2023-03-26T03:33:15.267Z,1.20
2023-03-26T03:36:21.900Z,0.90
2023-03-26T03:39:23.806Z,1.00
2023-03-26T03:42:25.863Z,1.00
2023-03-26T03:45:29.453Z,1.15
2023-03-26T03:48:31.328Z,1.00
2023-03-26T03:51:33.410Z,1.10
2023-03-26T03:54:36.167Z,1.27
2023-03-26T03:57:40.060Z,1.08
2023-03-26T04:00:43.515Z,0.90
2023-03-26T04:03:45.843Z,0.95
2023-03-26T04:06:49.077Z,0.98
2023-03-26T04:09:51.033Z,1.30
2023-03-26T04:12:52.783Z,1.40
2023-03-26T04:15:56.776Z,1.20
2023-03-26T04:19:00.234Z,1.05
2023-03-26T04:22:02.027Z,1.52
2023-03-26T04:25:04.735Z,1.30
2023-03-26T04:28:09.245Z,1.08
2023-03-26T04:31:16.809Z,1.10
2023-03-26T04:34:22.856Z,1.58
2023-03-26T04:37:30.592Z,1.10
2023-03-26T04:40:34.202Z,1.52
2023-03-26T04:43:36.417Z,1.42
2023-03-26T04:46:41.226Z,1.25
2023-03-26T04:49:44.078Z,1.60
2023-03-26T04:52:45.978Z,1.10
2023-03-26T04:55:56.596Z,1.00
2023-03-26T04:59:01.585Z,1.23
2023-03-26T05:02:06.674Z,0.90
2023-03-26T05:05:10.579Z,1.15
2023-03-26T05:08:12.910Z,1.42
2023-03-26T05:11:16.526Z,1.27
2023-03-26T05:14:19.496Z,1.05
2023-03-26T05:17:24.431Z,1.15
2023-03-26T05:20:28.197Z,1.38
2023-03-26T05:23:30.365Z,1.40
2023-03-26T05:26:32.490Z,1.27
2023-03-26T05:29:34.271Z,1.35
2023-03-26T05:32:37.686Z,1.73
2023-03-26T05:35:41.647Z,1.52
2023-03-26T05:38:44.080Z,1.20
2023-03-26T05:41:46.506Z,1.15
2023-03-26T05:44:48.635Z,0.93
2023-03-26T05:47:51.896Z,1.50
2023-03-26T05:50:57.242Z,1.65
2023-03-26T05:53:59.296Z,1.60
2023-03-26T05:57:02.867Z,1.50
2023-03-26T06:00:07.051Z,1.00
2023-03-26T06:03:10.506Z,1.50
2023-03-26T06:06:17.500Z,1.10
2023-03-26T06:09:19.890Z,1.50
2023-03-26T06:12:23.009Z,1.52
2023-03-26T06:15:25.117Z,1.30
2023-03-26T06:18:29.986Z,1.20
2023-03-26T06:21:32.291Z,1.92
2023-03-26T06:24:34.521Z,1.10
2023-03-26T06:27:36.612Z,1.02
2023-03-26T06:30:38.875Z,1.00
2023-03-26T06:33:44.173Z,1.30
2023-03-26T06:36:46.218Z,1.02
2023-03-26T06:39:48.184Z,1.27
2023-03-26T06:43:09.847Z,1.17
2023-03-26T06:46:12.345Z,1.13
2023-03-26T06:49:15.760Z,1.33
2023-03-26T06:52:18.005Z,1.20
2023-03-26T06:55:21.545Z,1.40
2023-03-26T06:58:25.502Z,1.35
2023-03-26T07:01:27.983Z,1.00
2023-03-26T07:04:32.557Z,1.33
2023-03-26T07:07:34.752Z,1.30
2023-03-26T07:10:47.926Z,0.98
2023-03-26T07:13:50.177Z,1.40
2023-03-26T07:16:52.390Z,0.93
2023-03-26T07:19:58.338Z,1.05
2023-03-26T07:23:01.021Z,1.08
2023-03-26T07:26:23.221Z,1.20
2023-03-26T07:29:35.275Z,1.00
2023-03-26T07:32:46.765Z,1.00
2023-03-26T07:35:58.814Z,1.40
2023-03-26T07:39:20.854Z,1.17
2023-03-26T07:42:49.731Z,1.13
2023-03-26T07:45:54.205Z,1.00
2023-03-26T07:48:56.878Z,1.70
2023-03-26T07:52:12.709Z,1.48
2023-03-26T07:55:16.765Z,1.33
2023-03-26T07:58:39.764Z,0.90
2023-03-26T08:01:53.902Z,1.50
2023-03-26T08:05:05.600Z,1.17
2023-03-26T08:08:18.972Z,1.05
2023-03-26T08:11:38.109Z,1.40
2023-03-26T08:14:50.804Z,1.33
2023-03-26T08:17:59.833Z,1.10
2023-03-26T08:21:08.477Z,1.50
2023-03-26T08:24:21.866Z,1.07
2023-03-26T08:27:38.798Z,1.20
2023-03-26T08:30:40.807Z,0.98
2023-03-26T08:33:44.249Z,1.30
2023-03-26T08:36:46.107Z,1.30
2023-03-26T08:39:49.691Z,1.10
2023-03-26T08:43:20.186Z,0.75
2023-03-26T08:46:56.488Z,1.42
2023-03-26T08:50:24.722Z,1.10
2023-03-26T08:53:49.666Z,0.90
2023-03-26T08:57:10.917Z,0.90
2023-03-26T09:00:38.338Z,1.10
2023-03-26T09:04:05.370Z,1.30
2023-03-26T09:07:46.310Z,0.95
2023-03-26T09:10:57.755Z,0.90
2023-03-26T09:14:25.541Z,1.05
2023-03-26T09:18:08.836Z,1.30
2023-03-26T09:21:46.429Z,0.82
2023-03-26T09:25:12.623Z,1.00
2023-03-26T09:28:44.398Z,1.20
2023-03-26T09:32:28.177Z,1.00
2023-03-26T09:35:51.316Z,1.50
2023-03-26T09:39:02.996Z,1.25
2023-03-26T09:42:10.240Z,1.27
2023-03-26T09:45:39.621Z,1.13
2023-03-26T09:49:01.649Z,1.15
2023-03-26T09:52:22.745Z,1.17
2023-03-26T09:55:54.258Z,1.35
2023-03-26T09:59:25.954Z,1.35
2023-03-26T10:02:49.232Z,1.30
2023-03-26T10:06:10.444Z,1.95
2023-03-26T10:09:32.749Z,1.38
2023-03-26T10:12:39.348Z,1.50
2023-03-26T10:15:55.382Z,0.98
2023-03-26T10:19:11.301Z,1.08
2023-03-26T10:22:28.072Z,1.20
2023-03-26T10:25:44.617Z,1.38
2023-03-26T10:29:02.313Z,1.10
2023-03-26T10:32:20.819Z,1.30
2023-03-26T10:35:36.625Z,1.58
2023-03-26T10:39:37.579Z,0.90
2023-03-26T10:43:09.262Z,1.17
2023-03-26T10:46:32.800Z,1.38
2023-03-26T10:50:00.771Z,1.88
2023-03-26T10:53:07.157Z,1.30
2023-03-26T10:56:32.542Z,1.17
2023-03-26T10:59:34.524Z,1.23
2023-03-26T11:02:44.523Z,1.20
2023-03-26T11:05:54.776Z,1.35
2023-03-26T11:09:04.208Z,1.00
2023-03-26T11:15:37.761Z,1.02
2023-03-26T11:18:44.964Z,1.20
2023-03-26T11:21:54.818Z,1.98
2023-03-26T11:25:16.064Z,1.00
2023-03-26T11:28:42.029Z,1.40
2023-03-26T11:32:06.777Z,1.10
2023-03-26T11:35:40.434Z,1.40
2023-03-26T11:38:43.957Z,1.13
2023-03-26T11:41:48.191Z,1.30
2023-03-26T11:44:55.798Z,1.00
2023-03-26T11:48:04.475Z,1.17
2023-03-26T11:51:09.461Z,1.30
2023-03-26T11:54:13.820Z,4.97
2023-03-26T11:57:21.446Z,2.03
2023-03-26T12:00:26.962Z,1.77
2023-03-26T12:03:30.969Z,1.40
2023-03-26T12:06:32.948Z,1.00
2023-03-26T12:09:36.383Z,1.10
2023-03-26T12:12:41.906Z,1.02
2023-03-26T12:15:46.006Z,1.25
2023-03-26T12:18:59.918Z,1.20
2023-03-26T12:22:02.787Z,0.90
2023-03-26T12:25:16.572Z,1.13
2023-03-26T12:28:20.749Z,1.10
2023-03-26T12:31:25.556Z,0.90
2023-03-26T12:34:31.515Z,1.20
2023-03-26T12:37:39.591Z,1.52
2023-03-26T12:40:43.716Z,0.98
2023-03-26T12:44:47.651Z,1.10
2023-03-26T12:47:59.790Z,1.40
2023-03-26T12:50:56.591Z,1.20
2023-03-26T12:54:13.230Z,0.95
2023-03-26T12:57:21.040Z,1.13
2023-03-26T13:00:34.148Z,1.08
2023-03-26T13:03:54.944Z,1.08
2023-03-26T13:07:01.931Z,1.42
2023-03-26T13:10:39.902Z,1.80
2023-03-26T13:13:56.889Z,1.30
2023-03-26T13:17:08.352Z,1.45
2023-03-26T13:20:19.361Z,1.10
2023-03-26T13:23:34.868Z,1.30
2023-03-26T13:26:48.148Z,0.75
2023-03-26T13:29:56.906Z,1.02
2023-03-26T13:33:13.884Z,1.25
2023-03-26T13:36:24.575Z,1.35
2023-03-26T13:39:35.482Z,1.00
2023-03-26T13:42:50.884Z,0.90
2023-03-26T13:46:05.127Z,0.90
2023-03-26T13:49:12.546Z,1.30
2023-03-26T13:52:23.113Z,1.10
2023-03-26T13:55:29.870Z,0.60
2023-03-26T13:58:37.976Z,0.68
2023-03-26T14:01:44.579Z,1.00
2023-03-26T14:04:52.156Z,0.75
2023-03-26T14:08:03.834Z,0.73
2023-03-26T14:11:12.068Z,0.80
2023-03-26T14:14:20.478Z,0.70
2023-03-26T14:17:28.737Z,0.60
2023-03-26T14:20:51.961Z,0.70
2023-03-26T14:24:31.555Z,0.60
2023-03-26T14:27:45.805Z,0.55
2023-03-26T14:31:02.291Z,0.52
2023-03-26T14:34:28.738Z,0.70
2023-03-26T14:37:57.752Z,0.70
2023-03-26T14:41:14.023Z,0.50
2023-03-26T14:44:57.291Z,0.98
2023-03-26T14:48:23.370Z,0.90
2023-03-26T14:51:51.594Z,0.77
2023-03-26T14:55:00.454Z,0.70
2023-03-26T14:58:35.295Z,0.60
2023-03-26T15:02:19.219Z,1.02
2023-03-26T15:05:47.978Z,0.70
2023-03-26T15:09:44.028Z,0.90
2023-03-26T15:13:11.892Z,0.70
2023-03-26T15:16:57.965Z,1.20
2023-03-26T15:20:45.189Z,1.02
2023-03-26T15:24:31.882Z,1.00
2023-03-26T15:27:54.574Z,0.70
2023-03-26T15:31:38.352Z,1.00
2023-03-26T15:35:19.681Z,0.68
2023-03-26T15:38:55.029Z,1.30
2023-03-26T15:42:07.788Z,0.77
2023-03-26T15:45:32.956Z,1.05
2023-03-26T15:48:55.104Z,0.80
2023-03-26T15:52:05.227Z,0.80
2023-03-26T15:55:25.541Z,1.10
2023-03-26T15:58:37.940Z,0.73
2023-03-26T16:01:54.120Z,0.90
2023-03-26T16:05:01.888Z,0.75
2023-03-26T16:08:18.187Z,0.73
2023-03-26T16:11:52.676Z,0.60
2023-03-26T16:15:29.100Z,0.80
2023-03-26T16:18:38.587Z,0.90
2023-03-26T16:21:56.202Z,0.90
2023-03-26T16:25:27.494Z,0.80
2023-03-26T16:28:36.796Z,0.88
2023-03-26T16:32:03.664Z,1.35
2023-03-26T16:35:35.851Z,0.55
2023-03-26T16:38:55.336Z,1.10
2023-03-26T16:42:27.928Z,1.65
2023-03-26T16:45:38.938Z,3.83
2023-03-26T16:48:55.273Z,1.90
2023-03-26T16:52:06.774Z,0.70
2023-03-26T16:55:22.240Z,0.80
2023-03-26T16:58:31.957Z,1.58
2023-03-26T17:01:59.656Z,1.50
2023-03-26T17:05:18.722Z,1.13
2023-03-26T17:08:35.553Z,0.80
2023-03-26T17:11:52.023Z,0.50
2023-03-26T17:15:21.575Z,0.90
2023-03-26T17:18:41.598Z,0.90
2023-03-26T17:21:52.173Z,0.95
2023-03-26T17:25:00.800Z,0.80
2023-03-26T17:28:26.303Z,1.10
2023-03-26T17:31:41.367Z,1.00
2023-03-26T17:35:01.197Z,1.60
2023-03-26T17:38:05.210Z,0.90
2023-03-26T17:41:14.773Z,1.00
2023-03-26T17:44:45.482Z,0.80
2023-03-26T17:47:54.447Z,1.10
2023-03-26T17:51:04.521Z,1.10
2023-03-26T17:54:17.288Z,1.23
2023-03-26T17:57:25.712Z,1.38
2023-03-26T18:00:33.829Z,1.00
2023-03-26T18:03:42.269Z,1.08
2023-03-26T18:07:13.980Z,1.25
2023-03-26T18:10:43.281Z,1.67
2023-03-26T18:14:30.347Z,1.52
2023-03-26T18:17:41.959Z,1.10
2023-03-26T18:20:46.709Z,0.95
2023-03-26T18:23:51.113Z,1.20
2023-03-26T18:26:58.939Z,1.10
2023-03-26T18:30:16.941Z,1.40
2023-03-26T18:33:23.711Z,1.58
2023-03-26T18:36:31.054Z,1.50
2023-03-26T18:39:38.577Z,1.00
2023-03-26T18:42:47.745Z,1.20
2023-03-26T18:45:53.856Z,0.80
2023-03-26T18:49:01.676Z,1.00
2023-03-26T18:52:04.991Z,0.80
2023-03-26T18:55:14.911Z,0.90
2023-03-26T18:58:25.976Z,0.80
2023-03-26T19:01:31.230Z,1.10
2023-03-26T19:04:35.985Z,1.30
2023-03-26T19:07:39.496Z,0.90
2023-03-26T19:10:46.115Z,0.90
2023-03-26T19:14:00.491Z,0.80
2023-03-26T19:17:07.544Z,0.90
2023-03-26T19:20:17.307Z,0.90
2023-03-26T19:23:24.451Z,0.70
2023-03-26T19:26:31.666Z,0.70
2023-03-26T19:29:36.631Z,0.70
2023-03-26T19:32:41.265Z,0.98
2023-03-26T19:35:46.601Z,0.70
2023-03-26T19:38:53.535Z,0.77
2023-03-26T19:41:59.219Z,1.00
2023-03-26T19:45:04.686Z,0.80
2023-03-26T19:48:15.265Z,0.95
2023-03-26T19:51:23.554Z,0.70
2023-03-26T19:54:31.437Z,0.60
2023-03-26T19:57:36.549Z,0.93
2023-03-26T20:00:41.470Z,0.90
2023-03-26T20:03:46.774Z,0.73
2023-03-26T20:06:50.133Z,0.70
2023-03-26T20:09:53.945Z,0.65
2023-03-26T20:13:00.511Z,0.55
2023-03-26T20:16:07.894Z,0.55
2023-03-26T20:19:12.144Z,0.68
2023-03-26T20:22:19.912Z,0.40
2023-03-26T20:25:28.825Z,0.50
2023-03-26T20:28:47.905Z,0.30
2023-03-26T20:31:51.747Z,0.32
2023-03-26T20:34:54.844Z,0.32
2023-03-26T20:37:58.760Z,0.32
2023-03-26T20:41:01.818Z,0.40
2023-03-26T20:44:14.007Z,0.38
2023-03-26T20:47:20.182Z,0.40
2023-03-26T20:50:22.857Z,0.20
2023-03-26T20:53:26.624Z,1.25
2023-03-26T20:56:28.871Z,0.43
2023-03-26T20:59:32.718Z,0.50
2023-03-26T21:02:35.222Z,0.40
2023-03-26T21:05:38.393Z,0.22
2023-03-26T21:08:41.451Z,0.20
2023-03-26T21:11:59.998Z,0.20
2023-03-26T21:15:10.254Z,0.30
2023-03-26T21:18:19.974Z,0.52
2023-03-26T21:21:35.508Z,0.30
2023-03-26T21:24:49.321Z,0.40
2023-03-26T21:28:06.035Z,0.35
2023-03-26T21:31:14.923Z,0.40
2023-03-26T21:34:17.607Z,0.57
2023-03-26T21:37:20.392Z,0.40
2023-03-26T21:40:22.900Z,0.20
2023-03-26T21:43:25.721Z,0.38
2023-03-26T21:46:31.549Z,0.40
2023-03-26T21:49:34.357Z,0.20
2023-03-26T21:52:37.394Z,0.30
2023-03-26T21:55:48.568Z,0.40
2023-03-26T21:58:59.090Z,0.30
2023-03-26T22:02:10.505Z,0.22
2023-03-26T22:05:16.356Z,0.32
2023-03-26T22:08:25.203Z,0.50
2023-03-26T22:11:27.000Z,0.30
2023-03-26T22:14:28.924Z,0.35
2023-03-26T22:17:32.248Z,0.20
2023-03-26T22:20:34.296Z,0.30
2023-03-26T22:23:36.343Z,0.40
2023-03-26T22:26:38.621Z,0.40
2023-03-26T22:29:40.380Z,0.47
2023-03-26T22:32:43.748Z,0.40
2023-03-26T22:35:46.349Z,0.30
2023-03-26T22:38:51.192Z,0.40
2023-03-26T22:41:53.155Z,0.40
2023-03-26T22:44:54.981Z,0.40
2023-03-26T22:48:03.950Z,0.30
2023-03-26T22:51:08.091Z,0.43
2023-03-26T22:54:10.634Z,0.40
2023-03-26T22:57:12.864Z,0.43
2023-03-26T23:00:15.603Z,0.40
2023-03-26T23:03:20.400Z,0.50
2023-03-26T23:06:38.585Z,0.40
2023-03-26T23:09:40.375Z,0.40
2023-03-26T23:12:42.215Z,0.40
2023-03-26T23:15:44.091Z,0.30
2023-03-26T23:18:47.678Z,0.35
2023-03-26T23:21:49.905Z,0.40
2023-03-26T23:24:51.662Z,0.50
2023-03-26T23:27:53.546Z,0.55
2023-03-26T23:30:55.605Z,0.45
2023-03-26T23:34:01.432Z,0.52
2023-03-26T23:37:03.390Z,0.50
2023-03-26T23:40:06.823Z,0.70
2023-03-26T23:43:08.924Z,0.70
2023-03-26T23:46:10.947Z,0.40
2023-03-26T23:49:14.578Z,0.50
2023-03-26T23:52:16.568Z,0.52
2023-03-26T23:55:18.336Z,0.70
2023-03-26T23:58:21.559Z,0.70
